Time;durP1;ratioP1;P1;durP2;ratioP2;P2;SDS_P1;SDS_P2;PMS_P1;PMS_P2;Temp;Humidity;BMP_temperature;BMP_pressure;BME280_temperature;BME280_humidity;BME280_pressure;Samples;Min_cycle;Max_cycle;Signal;HPM_P1;HPM_P2
2022/01/10 00:01:49;;;;;;;30.27;7.50;;;2.00;99.90;;;;;;4891387;29;20056;-81
2022/01/10 00:04:15;;;;;;;30.77;7.68;;;2.00;99.90;;;;;;4879158;29;20128;-79
2022/01/10 00:06:41;;;;;;;38.17;7.57;;;2.00;99.90;;;;;;4885173;29;20080;-80
2022/01/10 00:09:06;;;;;;;25.60;7.55;;;2.00;99.90;;;;;;4916489;29;20488;-79
2022/01/10 00:11:32;;;;;;;28.73;7.45;;;1.90;99.90;;;;;;4904859;29;20048;-79
2022/01/10 00:13:58;;;;;;;40.17;9.13;;;1.90;99.90;;;;;;4889317;29;20056;-78
2022/01/10 00:16:24;;;;;;;35.38;7.63;;;1.90;99.90;;;;;;4911410;29;20545;-79
2022/01/10 00:18:49;;;;;;;31.75;7.50;;;1.90;99.90;;;;;;4884953;29;20163;-79
2022/01/10 00:21:16;;;;;;;31.52;8.10;;;1.90;99.90;;;;;;4898454;29;20059;-80
2022/01/10 00:23:41;;;;;;;37.92;8.95;;;1.90;99.90;;;;;;4881811;29;20743;-79
2022/01/10 00:26:07;;;;;;;32.97;7.60;;;1.90;99.90;;;;;;4894917;29;20103;-80
2022/01/10 00:28:33;;;;;;;24.50;7.07;;;1.80;99.90;;;;;;4884974;29;20486;-79
2022/01/10 00:30:58;;;;;;;29.40;8.07;;;1.80;99.90;;;;;;4910548;29;20059;-81
2022/01/10 00:33:24;;;;;;;26.33;6.72;;;1.80;99.90;;;;;;4902356;29;20140;-79
2022/01/10 00:35:50;;;;;;;27.60;6.93;;;1.80;99.90;;;;;;4893177;29;20053;-79
2022/01/10 00:38:16;;;;;;;35.10;7.85;;;1.70;99.90;;;;;;4899810;29;20478;-79
2022/01/10 00:40:42;;;;;;;36.65;7.07;;;1.70;99.90;;;;;;4908564;29;20044;-80
2022/01/10 00:43:16;;;;;;;33.03;7.60;;;1.60;99.90;;;;;;4914532;29;20066;-85
2022/01/10 00:45:42;;;;;;;34.88;8.45;;;1.50;99.90;;;;;;4902814;29;20043;-80
2022/01/10 00:48:08;;;;;;;30.73;8.10;;;1.60;99.90;;;;;;4915081;29;20463;-84
2022/01/10 00:50:34;;;;;;;31.70;8.15;;;1.60;99.90;;;;;;4906415;29;20111;-80
2022/01/10 00:53:01;;;;;;;24.50;7.68;;;1.60;99.90;;;;;;4916637;29;20056;-80
2022/01/10 00:55:28;;;;;;;39.05;8.55;;;1.60;99.90;;;;;;4898888;29;20052;-80
2022/01/10 00:57:54;;;;;;;26.65;8.20;;;1.50;99.90;;;;;;4879678;29;20048;-79
2022/01/10 01:00:21;;;;;;;40.50;8.13;;;1.50;99.90;;;;;;4898378;29;20136;-79
2022/01/10 01:02:47;;;;;;;42.47;9.55;;;1.50;99.90;;;;;;4905550;29;20059;-80
2022/01/10 01:05:17;;;;;;;36.47;8.30;;;1.40;99.90;;;;;;4902951;29;20088;-79
2022/01/10 01:07:43;;;;;;;33.30;7.90;;;1.40;99.90;;;;;;4885722;29;20056;-79
2022/01/10 01:13:05;;;;;;;35.97;8.18;;;1.30;99.90;;;;;;4899973;29;20470;-79
2022/01/10 01:15:33;;;;;;;41.13;9.48;;;1.40;99.90;;;;;;4893415;29;20107;-80
2022/01/10 01:25:49;;;;;;;34.42;8.40;;;1.20;99.90;;;;;;4899840;29;20052;-79
2022/01/10 01:28:15;;;;;;;38.10;8.48;;;1.30;99.90;;;;;;4888314;29;20059;-84
2022/01/10 01:30:42;;;;;;;35.33;8.88;;;1.20;99.90;;;;;;4905315;29;20040;-79
2022/01/10 01:33:09;;;;;;;37.35;8.85;;;1.20;99.90;;;;;;4883434;29;20056;-79
2022/01/10 01:35:36;;;;;;;34.70;9.13;;;1.20;99.90;;;;;;4914896;29;20522;-81
2022/01/10 01:38:02;;;;;;;32.22;8.88;;;1.20;99.90;;;;;;4883319;29;20406;-79
2022/01/10 01:40:30;;;;;;;35.92;9.68;;;1.20;99.90;;;;;;4894580;29;20048;-82
2022/01/10 01:42:57;;;;;;;34.90;8.93;;;1.20;99.90;;;;;;4898523;29;20956;-79
2022/01/10 01:45:42;;;;;;;51.80;10.98;;;1.20;99.90;;;;;;4914726;29;20044;-80
2022/01/10 01:48:07;;;;;;;48.78;9.52;;;1.20;99.90;;;;;;4902526;29;20056;-79
2022/01/10 01:50:34;;;;;;;34.10;8.77;;;1.20;99.90;;;;;;4883247;29;20082;-80
2022/01/10 01:53:00;;;;;;;39.03;10.10;;;1.20;99.90;;;;;;4915583;29;20387;-80
2022/01/10 01:55:26;;;;;;;33.03;9.10;;;1.30;99.90;;;;;;4901417;29;20056;-78
2022/01/10 01:57:52;;;;;;;41.92;10.45;;;1.20;99.90;;;;;;4897455;29;20055;-81
2022/01/10 02:00:19;;;;;;;38.88;9.48;;;1.20;99.90;;;;;;4915050;29;20115;-84
2022/01/10 02:02:49;;;;;;;29.67;10.20;;;1.20;99.90;;;;;;4915205;29;20383;-79
2022/01/10 02:05:15;;;;;;;40.35;10.20;;;1.20;99.90;;;;;;4905702;29;20406;-81
2022/01/10 02:07:41;;;;;;;44.25;10.10;;;1.30;99.90;;;;;;4885329;29;20054;-79
2022/01/10 02:10:07;;;;;;;38.58;9.88;;;1.20;99.90;;;;;;4892789;29;20052;-80
2022/01/10 02:12:33;;;;;;;38.72;10.15;;;1.20;99.90;;;;;;4911254;29;20063;-79
2022/01/10 02:14:59;;;;;;;40.72;9.65;;;1.20;99.90;;;;;;4898574;29;20056;-79
2022/01/10 02:17:34;;;;;;;42.35;9.98;;;1.20;99.90;;;;;;4914424;29;20055;-79
2022/01/10 02:20:07;;;;;;;46.22;11.40;;;1.20;99.90;;;;;;4897477;29;20168;-79
2022/01/10 02:22:34;;;;;;;38.03;9.90;;;1.20;99.90;;;;;;4913201;29;20123;-80
2022/01/10 02:24:59;;;;;;;43.90;11.27;;;1.20;99.90;;;;;;4898074;29;21869;-80
2022/01/10 02:27:25;;;;;;;50.78;10.57;;;1.20;99.90;;;;;;4897753;29;20079;-79
2022/01/10 02:29:52;;;;;;;41.53;10.20;;;1.20;99.90;;;;;;4897760;29;20056;-80
2022/01/10 02:32:19;;;;;;;40.55;11.30;;;1.10;99.90;;;;;;4897755;29;20105;-79
2022/01/10 02:34:45;;;;;;;46.58;11.75;;;1.10;99.90;;;;;;4900344;29;20071;-79
2022/01/10 02:37:27;;;;;;;46.50;12.52;;;1.10;99.90;;;;;;4883984;29;20056;-81
2022/01/10 02:39:53;;;;;;;53.85;11.48;;;1.00;99.90;;;;;;4902023;29;20055;-78
2022/01/10 02:42:18;;;;;;;33.17;10.73;;;1.00;99.90;;;;;;4908897;29;20059;-79
2022/01/10 02:44:44;;;;;;;53.40;14.20;;;0.90;99.90;;;;;;4897440;29;20044;-82
2022/01/10 02:47:10;;;;;;;39.03;12.57;;;0.90;99.90;;;;;;4881518;29;20053;-79
2022/01/10 02:49:37;;;;;;;48.28;12.02;;;0.90;99.90;;;;;;4881628;29;20175;-78
2022/01/10 02:52:06;;;;;;;57.35;13.75;;;0.80;99.90;;;;;;4901682;29;20051;-80
2022/01/10 02:54:32;;;;;;;53.60;13.48;;;0.70;99.90;;;;;;4904384;29;20138;-82
2022/01/10 02:56:57;;;;;;;51.63;14.98;;;0.70;99.90;;;;;;4917119;29;20104;-80
2022/01/10 02:59:24;;;;;;;44.22;12.20;;;0.60;99.90;;;;;;4912426;29;20051;-79
2022/01/10 03:01:51;;;;;;;48.20;12.40;;;0.60;99.90;;;;;;4911009;29;20152;-78
2022/01/10 03:04:16;;;;;;;60.92;14.23;;;0.50;99.90;;;;;;4900440;29;20581;-79
2022/01/10 03:06:43;;;;;;;48.97;13.52;;;0.50;99.90;;;;;;4900183;29;20059;-78
2022/01/10 03:09:10;;;;;;;54.55;12.75;;;0.40;99.90;;;;;;4908608;29;20051;-80
2022/01/10 03:11:37;;;;;;;48.15;12.85;;;0.30;99.90;;;;;;4905684;29;20044;-78
2022/01/10 03:14:03;;;;;;;48.75;14.20;;;0.30;99.90;;;;;;4912505;29;20055;-79
2022/01/10 03:16:30;;;;;;;51.40;12.10;;;0.30;99.90;;;;;;4909799;29;20048;-86
2022/01/10 03:18:55;;;;;;;43.22;14.45;;;0.20;99.90;;;;;;4885329;29;20084;-79
2022/01/10 03:21:21;;;;;;;45.65;11.85;;;0.20;99.90;;;;;;4900829;29;20071;-80
2022/01/10 03:23:48;;;;;;;50.75;12.57;;;0.10;99.90;;;;;;4895565;29;20066;-79
2022/01/10 03:26:14;;;;;;;52.72;14.90;;;0.10;99.90;;;;;;4905639;29;20075;-80
2022/01/10 03:28:40;;;;;;;44.78;13.02;;;0.10;99.90;;;;;;4903195;29;20052;-80
2022/01/10 03:31:06;;;;;;;47.35;14.50;;;0.20;99.90;;;;;;4885013;29;20048;-79
2022/01/10 03:33:32;;;;;;;52.33;15.88;;;0.20;99.90;;;;;;4900288;29;20100;-85
2022/01/10 03:35:57;;;;;;;51.58;14.45;;;0.30;99.90;;;;;;4900214;29;20044;-79
2022/01/10 03:38:23;;;;;;;58.00;15.20;;;0.20;99.90;;;;;;4900916;29;20048;-79
2022/01/10 03:40:49;;;;;;;50.60;14.75;;;0.30;99.90;;;;;;4908994;29;20123;-81
2022/01/10 03:43:14;;;;;;;54.20;15.55;;;0.40;99.90;;;;;;4895877;29;20087;-80
2022/01/10 03:45:40;;;;;;;48.38;16.05;;;0.40;99.90;;;;;;4899904;29;20122;-80
2022/01/10 03:48:06;;;;;;;48.90;16.00;;;0.50;99.90;;;;;;4901376;29;20044;-80
2022/01/10 03:50:32;;;;;;;52.42;15.57;;;0.30;99.90;;;;;;4875973;29;20080;-81
2022/01/10 03:52:58;;;;;;;70.70;14.88;;;0.20;99.90;;;;;;4879276;29;20486;-81
2022/01/10 03:55:24;;;;;;;60.38;14.93;;;0.20;99.90;;;;;;4900151;29;20040;-80
2022/01/10 03:57:49;;;;;;;58.03;14.48;;;0.10;99.90;;;;;;4901616;29;20052;-80
2022/01/10 04:00:16;;;;;;;46.72;14.63;;;0.00;99.90;;;;;;4907056;29;20059;-80
2022/01/10 04:02:47;;;;;;;56.97;14.35;;;-0.10;99.90;;;;;;4916140;29;20346;-81
2022/01/10 04:05:12;;;;;;;59.80;15.50;;;-0.10;99.90;;;;;;4899957;29;20504;-80
2022/01/10 04:07:38;;;;;;;49.75;13.95;;;-0.20;99.90;;;;;;4900663;29;20040;-85
2022/01/10 04:10:04;;;;;;;61.55;15.75;;;-0.20;99.90;;;;;;4900261;29;20052;-79
2022/01/10 04:12:30;;;;;;;48.15;14.23;;;-0.30;99.90;;;;;;4884629;29;20044;-80
2022/01/10 04:14:56;;;;;;;56.22;15.15;;;-0.30;99.90;;;;;;4909659;29;20048;-80
2022/01/10 04:17:22;;;;;;;57.60;16.40;;;-0.20;99.90;;;;;;4884383;29;20040;-81
2022/01/10 04:19:48;;;;;;;51.80;15.85;;;-0.30;99.90;;;;;;4883560;29;20044;-81
2022/01/10 04:22:13;;;;;;;60.92;18.40;;;-0.30;99.90;;;;;;4900402;29;20052;-81
2022/01/10 04:24:39;;;;;;;52.20;17.73;;;-0.30;99.90;;;;;;4901626;29;20639;-85
2022/01/10 04:27:05;;;;;;;55.25;17.77;;;-0.30;99.90;;;;;;4884042;29;20048;-81
2022/01/10 04:29:30;;;;;;;65.47;19.65;;;-0.10;99.90;;;;;;4916091;29;20495;-81
2022/01/10 04:31:56;;;;;;;63.45;19.65;;;0.10;99.90;;;;;;4910381;29;20392;-80
2022/01/10 04:34:22;;;;;;;58.50;18.77;;;0.20;99.90;;;;;;4915940;29;20104;-81
2022/01/10 04:36:48;;;;;;;63.38;18.83;;;0.20;99.90;;;;;;4884757;29;20041;-81
2022/01/10 04:39:14;;;;;;;60.75;18.67;;;0.10;99.90;;;;;;4884143;29;20056;-80
2022/01/10 04:41:39;;;;;;;64.45;20.83;;;0.10;99.90;;;;;;4898906;29;20110;-80
2022/01/10 04:44:07;;;;;;;71.20;22.00;;;0.10;99.90;;;;;;4884212;29;20048;-80
2022/01/10 04:46:33;;;;;;;63.67;22.65;;;0.10;99.90;;;;;;4873660;29;20048;-81
2022/01/10 04:48:59;;;;;;;79.22;23.38;;;0.10;99.90;;;;;;4897297;29;20557;-81
2022/01/10 04:51:27;;;;;;;65.88;21.98;;;0.10;99.90;;;;;;4915960;29;20044;-80
2022/01/10 04:53:55;;;;;;;61.95;22.25;;;0.10;99.90;;;;;;4883149;29;20402;-80
2022/01/10 04:56:21;;;;;;;72.22;24.67;;;0.10;99.90;;;;;;4915281;29;20048;-81
2022/01/10 04:58:49;;;;;;;67.88;23.98;;;0.20;99.90;;;;;;4898029;29;20119;-81
2022/01/10 05:01:16;;;;;;;71.65;25.15;;;0.20;99.90;;;;;;4883663;29;20062;-80
2022/01/10 05:03:42;;;;;;;81.40;25.73;;;0.20;99.90;;;;;;4899221;29;20064;-82
2022/01/10 05:06:08;;;;;;;66.10;24.58;;;0.20;99.90;;;;;;4897703;29;20060;-80
2022/01/10 05:08:34;;;;;;;66.63;24.85;;;0.20;99.90;;;;;;4908694;29;20048;-80
2022/01/10 05:10:59;;;;;;;66.53;23.25;;;0.20;99.90;;;;;;4898343;29;20056;-80
2022/01/10 05:13:26;;;;;;;72.50;24.15;;;0.30;99.90;;;;;;4898775;29;20087;-80
2022/01/10 05:15:53;;;;;;;79.10;25.55;;;0.30;99.90;;;;;;4898474;29;20133;-80
2022/01/10 05:18:20;;;;;;;71.47;24.58;;;0.30;99.90;;;;;;4899699;29;20052;-79
2022/01/10 05:20:46;;;;;;;76.95;26.70;;;0.30;99.90;;;;;;4893013;29;20135;-81
2022/01/10 05:23:12;;;;;;;65.43;24.05;;;0.30;99.90;;;;;;4902096;29;20505;-80
2022/01/10 05:25:40;;;;;;;70.38;26.20;;;0.30;99.90;;;;;;4882239;29;20040;-80
2022/01/10 05:28:11;;;;;;;73.50;25.50;;;0.40;99.90;;;;;;4906418;29;20055;-79
2022/01/10 05:30:38;;;;;;;78.25;26.77;;;0.30;99.90;;;;;;4907581;29;20064;-79
2022/01/10 05:33:04;;;;;;;79.72;27.77;;;0.30;99.90;;;;;;4882250;29;20055;-79
2022/01/10 05:35:30;;;;;;;86.30;29.55;;;0.20;99.90;;;;;;4889007;29;20059;-79
2022/01/10 05:37:56;;;;;;;72.47;29.13;;;0.20;99.90;;;;;;4911779;29;20056;-79
2022/01/10 05:40:22;;;;;;;89.10;30.20;;;0.10;99.90;;;;;;4882922;29;20095;-81
2022/01/10 05:42:47;;;;;;;84.63;29.23;;;0.10;99.90;;;;;;4899014;29;20071;-80
2022/01/10 05:45:14;;;;;;;74.07;27.67;;;0.10;99.90;;;;;;4897583;29;20048;-80
2022/01/10 05:47:42;;;;;;;76.88;29.52;;;0.10;99.90;;;;;;4914961;29;20059;-80
2022/01/10 05:50:11;;;;;;;84.97;29.58;;;0.10;99.90;;;;;;4898083;29;20505;-81
2022/01/10 05:52:37;;;;;;;83.18;32.10;;;0.10;99.90;;;;;;4886963;29;20048;-79
2022/01/10 05:55:04;;;;;;;82.20;30.30;;;0.10;99.90;;;;;;4897655;29;20069;-79
2022/01/10 05:57:30;;;;;;;87.45;31.80;;;0.10;99.90;;;;;;4898917;29;20052;-80
2022/01/10 05:59:55;;;;;;;105.57;30.95;;;0.00;99.90;;;;;;4899081;29;20549;-80
2022/01/10 06:02:21;;;;;;;94.60;32.55;;;0.00;99.90;;;;;;4915102;29;20040;-82
2022/01/10 06:04:47;;;;;;;89.57;30.77;;;0.00;99.90;;;;;;4882498;29;20175;-80
2022/01/10 06:07:13;;;;;;;103.28;32.20;;;-0.10;99.90;;;;;;4896881;29;20123;-79
2022/01/10 06:09:39;;;;;;;85.43;30.42;;;-0.10;99.90;;;;;;4919741;29;20048;-80
2022/01/10 06:12:06;;;;;;;77.22;29.67;;;-0.10;99.90;;;;;;4900055;29;20045;-79
2022/01/10 06:14:31;;;;;;;79.55;29.20;;;-0.10;99.90;;;;;;4898086;29;20062;-80
2022/01/10 06:16:57;;;;;;;81.40;31.27;;;-0.10;99.90;;;;;;4897500;29;20508;-84
2022/01/10 06:19:23;;;;;;;86.60;30.58;;;0.00;99.90;;;;;;4898009;29;20105;-80
2022/01/10 06:21:48;;;;;;;92.25;33.35;;;-0.10;99.90;;;;;;4901609;29;20051;-78
2022/01/10 06:24:14;;;;;;;87.68;31.95;;;-0.10;99.90;;;;;;4907683;29;20088;-79
2022/01/10 06:26:40;;;;;;;82.50;30.95;;;-0.20;99.90;;;;;;4897114;29;20047;-79
2022/01/10 06:29:05;;;;;;;86.93;30.40;;;-0.20;99.90;;;;;;4880632;29;20051;-78
2022/01/10 06:31:31;;;;;;;89.93;31.13;;;-0.20;99.90;;;;;;4897529;29;20056;-80
2022/01/10 06:33:57;;;;;;;91.95;29.52;;;-0.20;99.90;;;;;;4897330;29;20052;-84
2022/01/10 06:36:23;;;;;;;89.13;30.15;;;-0.20;99.90;;;;;;4901128;29;20115;-79
2022/01/10 06:38:48;;;;;;;93.15;28.60;;;-0.20;99.90;;;;;;4890569;29;20091;-79
2022/01/10 06:41:14;;;;;;;86.03;28.85;;;-0.20;99.90;;;;;;4901763;29;20090;-79
2022/01/10 06:43:40;;;;;;;91.03;28.45;;;-0.20;99.90;;;;;;4907813;29;20052;-79
2022/01/10 06:46:06;;;;;;;86.90;27.88;;;-0.20;99.90;;;;;;4893358;29;20055;-79
2022/01/10 06:48:33;;;;;;;75.65;27.55;;;-0.20;99.90;;;;;;4898150;29;20056;-80
2022/01/10 06:50:59;;;;;;;75.18;27.20;;;-0.30;99.90;;;;;;4913637;29;20274;-81
2022/01/10 06:53:25;;;;;;;83.50;27.38;;;-0.30;99.90;;;;;;4898909;29;20051;-82
2022/01/10 06:55:52;;;;;;;79.85;27.90;;;-0.40;99.90;;;;;;4881702;29;20143;-78
2022/01/10 06:58:17;;;;;;;67.78;25.75;;;-0.40;99.90;;;;;;4895927;29;20056;-84
2022/01/10 07:00:44;;;;;;;69.57;27.48;;;-0.40;99.90;;;;;;4912801;29;20044;-78
2022/01/10 07:03:10;;;;;;;65.78;26.45;;;-0.40;99.90;;;;;;4895778;29;20076;-79
2022/01/10 07:05:36;;;;;;;77.97;25.60;;;-0.40;99.90;;;;;;4881983;29;20087;-79
2022/01/10 07:08:03;;;;;;;63.70;23.75;;;-0.40;99.90;;;;;;4897351;29;20463;-85
2022/01/10 07:10:28;;;;;;;72.53;27.42;;;-0.40;99.90;;;;;;4897659;29;20059;-79
2022/01/10 07:12:54;;;;;;;73.40;26.33;;;-0.40;99.90;;;;;;4897771;29;20044;-80
2022/01/10 07:15:21;;;;;;;68.28;25.70;;;-0.40;99.90;;;;;;4912940;29;20052;-79
2022/01/10 07:17:46;;;;;;;75.78;27.63;;;-0.40;99.90;;;;;;4897601;29;20056;-80
2022/01/10 07:20:12;;;;;;;68.28;25.80;;;-0.50;99.90;;;;;;4897096;29;20103;-81
2022/01/10 07:22:38;;;;;;;70.45;26.02;;;-0.50;99.90;;;;;;4913262;29;20447;-79
2022/01/10 07:25:04;;;;;;;81.55;29.55;;;-0.50;99.90;;;;;;4914203;29;20040;-84
2022/01/10 07:27:30;;;;;;;73.55;28.55;;;-0.50;99.90;;;;;;4913011;29;20048;-79
2022/01/10 07:29:55;;;;;;;75.45;27.45;;;-0.50;99.90;;;;;;4896860;29;20062;-80
2022/01/10 07:32:25;;;;;;;72.88;26.58;;;-0.60;99.90;;;;;;4901848;29;20054;-81
2022/01/10 07:34:51;;;;;;;76.00;28.27;;;-0.60;99.90;;;;;;4902450;29;20097;-79
2022/01/10 07:37:18;;;;;;;89.47;33.13;;;-0.60;99.90;;;;;;4874831;29;20117;-78
2022/01/10 07:39:43;;;;;;;71.88;29.90;;;-0.70;99.90;;;;;;4878081;29;20094;-79
2022/01/10 07:42:09;;;;;;;74.03;29.17;;;-0.60;99.90;;;;;;4921338;29;20126;-82
2022/01/10 07:44:35;;;;;;;84.88;28.48;;;-0.70;99.90;;;;;;4887252;29;20048;-79
2022/01/10 07:47:00;;;;;;;73.22;29.75;;;-0.70;99.90;;;;;;4902635;29;20051;-79
2022/01/10 07:49:26;;;;;;;66.47;27.17;;;-0.70;99.90;;;;;;4923564;29;20087;-79
2022/01/10 07:51:52;;;;;;;75.63;27.10;;;-0.70;99.90;;;;;;4923541;29;20059;-80
2022/01/10 07:54:18;;;;;;;67.70;25.27;;;-0.80;99.90;;;;;;4868662;29;20056;-80
2022/01/10 07:56:43;;;;;;;66.95;26.27;;;-0.80;99.90;;;;;;4883496;29;20095;-79
2022/01/10 07:59:09;;;;;;;73.68;28.25;;;-0.80;99.90;;;;;;4899642;29;20498;-84
2022/01/10 08:01:35;;;;;;;69.82;27.42;;;-0.90;99.90;;;;;;4912305;29;20060;-78
2022/01/10 08:04:01;;;;;;;77.95;27.85;;;-1.00;99.90;;;;;;4885955;29;20151;-78
2022/01/10 08:06:26;;;;;;;82.03;28.77;;;-1.00;99.90;;;;;;4905207;29;20514;-79
2022/01/10 08:08:52;;;;;;;66.30;27.65;;;-1.10;99.90;;;;;;4914856;29;20063;-79
2022/01/10 08:11:18;;;;;;;75.22;27.02;;;-1.10;99.90;;;;;;4893168;29;20048;-78
2022/01/10 08:13:44;;;;;;;70.85;27.70;;;-1.10;99.90;;;;;;4915358;29;20549;-78
2022/01/10 08:16:10;;;;;;;69.03;26.80;;;-1.10;99.90;;;;;;4907826;29;20060;-79
2022/01/10 08:18:36;;;;;;;72.13;28.55;;;-1.10;99.90;;;;;;4899112;29;20044;-78
2022/01/10 08:21:03;;;;;;;74.50;28.23;;;-1.10;99.90;;;;;;4903960;29;20066;-80
2022/01/10 08:23:29;;;;;;;74.85;29.67;;;-1.10;99.90;;;;;;4897036;29;20052;-78
2022/01/10 08:25:55;;;;;;;70.50;28.27;;;-1.00;99.90;;;;;;4900494;29;20051;-78
2022/01/10 08:28:22;;;;;;;73.50;26.65;;;-1.00;99.90;;;;;;4914746;29;20052;-78
2022/01/10 08:30:48;;;;;;;75.00;28.33;;;-1.00;99.90;;;;;;4910990;29;20122;-78
2022/01/10 08:33:14;;;;;;;71.60;27.38;;;-1.00;99.90;;;;;;4915896;29;20109;-84
2022/01/10 08:35:40;;;;;;;69.28;27.33;;;-1.10;99.90;;;;;;4903021;29;20051;-78
2022/01/10 08:38:06;;;;;;;61.35;26.05;;;-1.10;99.90;;;;;;4915423;29;20044;-78
2022/01/10 08:40:31;;;;;;;62.97;28.35;;;-1.10;99.90;;;;;;4883493;29;20143;-79
2022/01/10 08:42:59;;;;;;;71.18;28.13;;;-1.10;99.90;;;;;;4904712;29;20107;-78
2022/01/10 08:45:25;;;;;;;71.70;28.10;;;-1.10;99.90;;;;;;4903585;29;20048;-79
2022/01/10 08:47:52;;;;;;;75.30;29.67;;;-1.10;99.90;;;;;;4915952;29;20516;-78
2022/01/10 08:50:17;;;;;;;77.13;30.90;;;-1.00;99.90;;;;;;4915782;29;20052;-84
2022/01/10 08:52:43;;;;;;;81.53;30.88;;;-1.00;99.90;;;;;;4915333;29;20115;-79
2022/01/10 08:55:10;;;;;;;79.55;29.75;;;-1.00;99.90;;;;;;4915603;29;20545;-80
2022/01/10 08:57:36;;;;;;;69.15;29.98;;;-1.00;99.90;;;;;;4883271;29;20726;-78
2022/01/10 09:00:05;;;;;;;82.80;30.15;;;-0.90;99.90;;;;;;4911804;29;20111;-79
2022/01/10 09:02:30;;;;;;;76.80;28.85;;;-0.80;99.90;;;;;;4898198;29;20111;-78
2022/01/10 09:04:56;;;;;;;88.60;32.58;;;-0.80;99.90;;;;;;4883191;29;20048;-78
2022/01/10 09:07:22;;;;;;;76.47;30.67;;;-0.70;99.90;;;;;;4897316;29;20052;-79
2022/01/10 09:09:47;;;;;;;80.05;31.58;;;-0.60;99.90;;;;;;4899741;29;20055;-78
2022/01/10 09:12:13;;;;;;;85.30;32.17;;;-0.60;99.90;;;;;;4914187;29;20051;-78
2022/01/10 09:14:39;;;;;;;83.18;32.75;;;-0.50;99.90;;;;;;4911741;29;20595;-78
2022/01/10 09:17:05;;;;;;;85.13;33.70;;;-0.40;99.90;;;;;;4881310;29;20150;-79
2022/01/10 09:19:31;;;;;;;89.43;35.03;;;-0.30;99.90;;;;;;4894908;29;20478;-78
2022/01/10 09:21:56;;;;;;;94.65;36.60;;;-0.20;99.90;;;;;;4902672;29;20059;-78
2022/01/10 09:24:23;;;;;;;101.65;35.55;;;-0.20;99.90;;;;;;4883265;29;20052;-82
2022/01/10 09:26:48;;;;;;;90.38;37.30;;;-0.20;99.90;;;;;;4901085;29;20402;-79
2022/01/10 09:29:14;;;;;;;103.07;38.05;;;-0.20;99.90;;;;;;4906486;29;20059;-78
2022/01/10 09:31:40;;;;;;;111.65;40.67;;;-0.10;99.90;;;;;;4911679;29;20051;-78
2022/01/10 09:34:06;;;;;;;95.07;35.97;;;-0.10;99.90;;;;;;4913606;29;20060;-78
2022/01/10 09:36:34;;;;;;;100.43;38.10;;;0.00;99.90;;;;;;4898058;29;20087;-80
2022/01/10 09:39:01;;;;;;;101.93;38.72;;;0.00;99.90;;;;;;4901798;29;20442;-79
2022/01/10 09:41:27;;;;;;;102.22;39.08;;;0.00;99.90;;;;;;4897006;29;20044;-78
2022/01/10 09:43:56;;;;;;;100.18;37.90;;;0.10;99.90;;;;;;4897354;29;20062;-78
2022/01/10 09:46:23;;;;;;;108.07;40.22;;;0.10;99.90;;;;;;4907695;29;20055;-85
2022/01/10 09:48:49;;;;;;;113.60;39.83;;;0.10;99.90;;;;;;4906045;29;20052;-79
2022/01/10 09:51:15;;;;;;;94.97;37.13;;;0.20;99.90;;;;;;4903136;29;20517;-78
2022/01/10 09:53:41;;;;;;;100.47;38.20;;;0.20;99.90;;;;;;4897326;29;20051;-78
2022/01/10 09:56:07;;;;;;;99.80;40.22;;;0.30;99.90;;;;;;4887543;29;20050;-80
2022/01/10 09:58:33;;;;;;;101.03;38.95;;;0.20;99.90;;;;;;4898266;29;20131;-78
2022/01/10 10:01:00;;;;;;;111.63;41.92;;;0.20;99.90;;;;;;4899291;29;20056;-78
2022/01/10 10:03:26;;;;;;;94.57;38.92;;;0.20;99.90;;;;;;4890279;29;20375;-84
2022/01/10 10:05:56;;;;;;;105.13;40.53;;;0.30;99.90;;;;;;4905269;29;20056;-78
2022/01/10 10:08:24;;;;;;;109.75;40.85;;;0.30;99.90;;;;;;4914336;29;20055;-79
2022/01/10 10:10:51;;;;;;;98.05;40.90;;;0.30;99.90;;;;;;4885254;29;20455;-78
2022/01/10 10:13:18;;;;;;;98.03;40.58;;;0.30;99.90;;;;;;4904690;29;20059;-80
2022/01/10 10:15:45;;;;;;;102.15;42.28;;;0.40;99.90;;;;;;4899336;29;20040;-78
2022/01/10 10:18:12;;;;;;;99.07;41.88;;;0.40;99.90;;;;;;4913738;29;20051;-78
2022/01/10 10:20:40;;;;;;;103.22;42.72;;;0.40;99.90;;;;;;4893667;29;20074;-79
2022/01/10 10:23:08;;;;;;;103.57;42.95;;;0.40;99.90;;;;;;4912955;29;20091;-79
2022/01/10 10:25:33;;;;;;;102.47;43.17;;;0.50;99.90;;;;;;4881523;29;20048;-79
2022/01/10 10:27:59;;;;;;;114.78;44.80;;;0.40;99.90;;;;;;4885636;29;20063;-79
2022/01/10 10:30:28;;;;;;;122.13;46.70;;;0.50;99.90;;;;;;4898298;29;20417;-78
2022/01/10 10:33:17;;;;;;;113.15;45.35;;;0.50;99.90;;;;;;4914105;29;20120;-78
2022/01/10 10:35:53;;;;;;;112.25;45.10;;;0.50;99.90;;;;;;4897899;29;20068;-78
2022/01/10 10:38:19;;;;;;;114.28;45.85;;;0.50;99.90;;;;;;4913488;29;20191;-79
2022/01/10 10:40:45;;;;;;;111.43;45.17;;;0.60;99.90;;;;;;4897059;29;20079;-78
2022/01/10 10:43:11;;;;;;;112.93;46.80;;;0.60;99.90;;;;;;4884074;29;20054;-78
2022/01/10 10:45:38;;;;;;;112.85;46.47;;;0.60;99.90;;;;;;4919248;29;20054;-79
2022/01/10 10:48:07;;;;;;;129.65;48.95;;;0.60;99.90;;;;;;4896164;29;20055;-78
2022/01/10 10:50:44;;;;;;;121.07;47.17;;;0.70;99.90;;;;;;4881119;29;20049;-78
2022/01/10 10:53:14;;;;;;;109.97;46.95;;;0.70;99.90;;;;;;4897422;29;20056;-78
2022/01/10 10:55:41;;;;;;;125.43;49.88;;;0.80;99.90;;;;;;4913760;29;20055;-79
2022/01/10 10:58:09;;;;;;;120.85;49.75;;;0.80;99.90;;;;;;4913724;29;20131;-79
2022/01/10 11:00:36;;;;;;;117.10;49.45;;;0.80;99.90;;;;;;4886370;29;20094;-84
2022/01/10 11:03:02;;;;;;;131.73;52.33;;;0.80;99.90;;;;;;4893327;29;20573;-81
2022/01/10 11:05:29;;;;;;;116.05;49.05;;;0.80;99.90;;;;;;4878891;29;20139;-78
2022/01/10 11:07:55;;;;;;;120.28;49.53;;;1.00;99.90;;;;;;4881248;29;20049;-78
2022/01/10 11:10:23;;;;;;;125.78;49.35;;;1.00;99.90;;;;;;4896038;29;20601;-78
2022/01/10 11:12:53;;;;;;;124.80;51.97;;;1.10;99.90;;;;;;4864031;29;20083;-78
2022/01/10 11:15:20;;;;;;;122.95;49.55;;;1.10;99.90;;;;;;4896750;29;20062;-78
2022/01/10 11:17:46;;;;;;;113.47;48.03;;;1.20;99.90;;;;;;4895985;29;20083;-79
2022/01/10 11:20:18;;;;;;;114.45;47.42;;;1.20;99.90;;;;;;4900970;29;20052;-79
2022/01/10 11:22:58;;;;;;;109.13;46.03;;;1.30;99.90;;;;;;4912442;29;20084;-79
2022/01/10 11:25:33;;;;;;;112.68;46.90;;;1.30;99.90;;;;;;4899801;29;20052;-78
2022/01/10 11:28:05;;;;;;;110.35;46.85;;;1.40;99.90;;;;;;4917192;29;20056;-80
2022/01/10 11:30:45;;;;;;;116.57;46.70;;;1.40;99.90;;;;;;4906360;29;20052;-78
2022/01/10 11:33:16;;;;;;;120.93;48.83;;;1.50;99.90;;;;;;4900204;29;20056;-78
2022/01/10 11:35:54;;;;;;;130.73;49.20;;;1.60;99.90;;;;;;4904715;29;20060;-79
2022/01/10 11:38:31;;;;;;;123.50;47.10;;;1.60;99.90;;;;;;4900111;29;20109;-79
2022/01/10 11:41:10;;;;;;;99.32;42.67;;;1.60;99.90;;;;;;4899842;29;20056;-79
2022/01/10 11:44:07;;;;;;;116.00;46.28;;;1.80;99.90;;;;;;4899577;29;20072;-79
2022/01/10 11:46:48;;;;;;;114.47;45.58;;;1.90;99.90;;;;;;4903726;29;20051;-80
2022/01/10 11:49:16;;;;;;;114.50;47.60;;;2.00;99.90;;;;;;4899941;29;20075;-78
2022/01/10 11:51:51;;;;;;;111.38;48.40;;;2.30;99.90;;;;;;4899717;29;20056;-81
2022/01/10 11:54:43;;;;;;;116.22;49.33;;;2.60;99.90;;;;;;4909479;29;20052;-78
2022/01/10 11:57:15;;;;;;;108.57;48.05;;;2.70;99.90;;;;;;4915913;29;20590;-79
2022/01/10 12:00:03;;;;;;;114.88;48.10;;;2.70;99.90;;;;;;4899991;29;20060;-85
2022/01/10 12:02:29;;;;;;;114.45;47.80;;;2.90;99.90;;;;;;4900592;29;20064;-78
2022/01/10 12:04:58;;;;;;;108.53;46.00;;;2.80;99.90;;;;;;4909634;29;20525;-79
2022/01/10 12:07:24;;;;;;;122.30;46.42;;;2.80;99.90;;;;;;4915253;29;20056;-79
2022/01/10 12:09:51;;;;;;;103.05;45.05;;;2.80;99.90;;;;;;4896723;29;20379;-79
2022/01/10 12:12:19;;;;;;;105.72;45.45;;;2.90;99.90;;;;;;4900363;29;20062;-79
2022/01/10 12:14:45;;;;;;;120.40;48.80;;;2.90;99.90;;;;;;4916456;29;20079;-79
2022/01/10 12:17:13;;;;;;;121.70;47.05;;;3.00;99.90;;;;;;4891350;29;20044;-80
2022/01/10 12:19:39;;;;;;;114.00;44.17;;;2.90;99.90;;;;;;4903197;29;20517;-79
2022/01/10 12:22:06;;;;;;;108.25;46.05;;;3.00;99.90;;;;;;4915233;29;20103;-79
2022/01/10 12:24:40;;;;;;;99.47;44.28;;;3.10;99.90;;;;;;4908631;29;20131;-76
2022/01/10 12:27:08;;;;;;;102.85;44.25;;;3.10;99.90;;;;;;4915351;29;20096;-77
2022/01/10 12:29:34;;;;;;;98.28;43.63;;;3.20;99.90;;;;;;4916956;29;20095;-77
2022/01/10 12:32:01;;;;;;;101.93;43.20;;;3.30;99.90;;;;;;4915826;29;20056;-76
2022/01/10 12:34:28;;;;;;;90.15;42.20;;;3.20;99.90;;;;;;4900225;29;20111;-79
2022/01/10 12:36:54;;;;;;;101.57;44.75;;;3.30;99.90;;;;;;4914967;29;20068;-76
2022/01/10 12:39:27;;;;;;;90.57;42.72;;;3.50;99.90;;;;;;4900794;29;20044;-76
2022/01/10 12:41:56;;;;;;;95.68;42.75;;;3.50;99.90;;;;;;4900353;29;20060;-77
2022/01/10 12:44:22;;;;;;;99.93;43.10;;;3.40;99.90;;;;;;4884270;29;20060;-81